createdAt,value
2022-11-15T00:00:31.354Z,97973.85
2022-11-15T00:03:20.815Z,97972.98
2022-11-15T00:06:10.024Z,97972.81
2022-11-15T00:09:00.543Z,97970.08
2022-11-15T00:11:48.849Z,97967.52
2022-11-15T00:14:36.837Z,97966.48
2022-11-15T00:17:25.134Z,97967.32
2022-11-15T00:20:13.681Z,97963.73
2022-11-15T00:23:04.236Z,97957.40
2022-11-15T00:25:58.804Z,97953.12
2022-11-15T00:28:46.804Z,97952.10
2022-11-15T00:31:35.290Z,97949.02
2022-11-15T00:34:26.385Z,97946.79
2022-11-15T00:37:14.875Z,97943.02
2022-11-15T00:40:02.934Z,97944.58
2022-11-15T00:42:50.884Z,97943.53
2022-11-15T00:45:38.764Z,97941.15
2022-11-15T00:48:26.676Z,97936.88
2022-11-15T00:51:14.964Z,97937.39
2022-11-15T00:54:03.414Z,97933.61
2022-11-15T00:56:51.625Z,97932.60
2022-11-15T00:59:40.015Z,97926.45
2022-11-15T01:02:28.702Z,97921.83
2022-11-15T01:05:17.233Z,97921.99
2022-11-15T01:08:06.024Z,97919.08
2022-11-15T01:10:57.686Z,97919.06
2022-11-15T01:13:46.248Z,97911.88
2022-11-15T01:16:34.704Z,97910.16
2022-11-15T01:19:22.861Z,97906.92
2022-11-15T01:22:11.264Z,97907.44
2022-11-15T01:24:59.713Z,97899.56
2022-11-15T01:27:47.875Z,97902.47
2022-11-15T01:30:36.933Z,97899.05
2022-11-15T01:33:25.348Z,97897.69
2022-11-15T01:36:15.013Z,97895.98
2022-11-15T01:39:03.085Z,97891.19
2022-11-15T01:41:51.720Z,97888.62
2022-11-15T01:44:45.313Z,97892.20
2022-11-15T01:47:38.018Z,97889.99
2022-11-15T01:50:32.832Z,97888.96
2022-11-15T01:53:24.176Z,97885.71
2022-11-15T01:56:15.194Z,97878.88
2022-11-15T01:59:08.323Z,97874.09
2022-11-15T02:01:57.234Z,97869.99
2022-11-15T02:04:47.277Z,97870.33
2022-11-15T02:07:37.157Z,97867.90
2022-11-15T02:10:26.516Z,97862.95
2022-11-15T02:13:15.274Z,97859.02
2022-11-15T02:16:16.804Z,97857.31
2022-11-15T02:19:23.018Z,97858.31
2022-11-15T02:22:23.784Z,97865.32
2022-11-15T02:25:39.039Z,97854.02
2022-11-15T02:28:46.567Z,97852.02
2022-11-15T02:31:42.614Z,97846.19
2022-11-15T02:34:36.814Z,97845.00
2022-11-15T02:37:29.284Z,97846.71
2022-11-15T02:40:28.894Z,97845.13
2022-11-15T02:43:40.764Z,97848.89
2022-11-15T02:46:54.726Z,97844.77
2022-11-15T02:49:46.543Z,97843.19
2022-11-15T02:52:34.825Z,97839.94
2022-11-15T02:55:34.884Z,97836.00
2022-11-15T02:58:42.744Z,97836.70
2022-11-15T03:01:49.995Z,97836.53
2022-11-15T03:04:45.996Z,97831.58
2022-11-15T03:07:41.246Z,97823.38
2022-11-15T03:10:40.926Z,97821.30
2022-11-15T03:13:34.809Z,97823.19
2022-11-15T03:16:29.475Z,97817.15
2022-11-15T03:19:25.253Z,97814.90
2022-11-15T03:22:17.043Z,97812.84
2022-11-15T03:25:08.935Z,97808.71
2022-11-15T03:28:00.686Z,97803.42
2022-11-15T03:30:53.194Z,97800.03
2022-11-15T03:34:12.163Z,97799.88
2022-11-15T03:37:02.677Z,97801.10
2022-11-15T03:39:50.815Z,97799.21
2022-11-15T03:42:44.943Z,97793.93
2022-11-15T03:45:37.492Z,97787.95
2022-11-15T03:48:29.456Z,97787.45
2022-11-15T03:51:17.934Z,97789.45
2022-11-15T03:54:06.878Z,97783.96
2022-11-15T03:56:58.145Z,97777.82
2022-11-15T03:59:46.494Z,97778.14
2022-11-15T04:02:34.676Z,97774.19
2022-11-15T04:05:22.937Z,97770.77
2022-11-15T04:08:11.046Z,97769.41
2022-11-15T04:11:01.170Z,97765.34
2022-11-15T04:13:50.454Z,97756.96
2022-11-15T04:16:43.696Z,97751.16
2022-11-15T04:19:50.374Z,97751.14
2022-11-15T04:23:01.945Z,97747.38
2022-11-15T04:25:54.932Z,97748.20
2022-11-15T04:28:57.714Z,97746.48
2022-11-15T04:31:45.567Z,97742.58
2022-11-15T04:34:34.916Z,97736.44
2022-11-15T04:37:22.862Z,97732.52
2022-11-15T04:40:12.412Z,97729.77
2022-11-15T04:43:03.960Z,97726.20
2022-11-15T04:45:52.702Z,97729.61
2022-11-15T04:48:40.636Z,97733.02
2022-11-15T04:51:28.675Z,97734.05
2022-11-15T04:54:17.444Z,97730.29
2022-11-15T04:57:08.697Z,97730.11
2022-11-15T04:59:56.726Z,97728.92
2022-11-15T05:03:07.764Z,97727.03
2022-11-15T05:05:56.619Z,97720.36
2022-11-15T05:08:44.675Z,97718.81
2022-11-15T05:11:32.787Z,97716.08
2022-11-15T05:14:20.755Z,97714.76
2022-11-15T05:17:09.043Z,97705.02
2022-11-15T05:19:57.446Z,97701.27
2022-11-15T05:22:45.407Z,97697.70
2022-11-15T05:25:33.706Z,97696.52
2022-11-15T05:28:21.573Z,97692.08
2022-11-15T05:31:11.625Z,97695.48
2022-11-15T05:34:02.048Z,97695.48
2022-11-15T05:36:50.683Z,97698.70
2022-11-15T05:39:38.334Z,97698.30
2022-11-15T05:42:28.855Z,97695.75
2022-11-15T05:45:26.557Z,97698.14
2022-11-15T05:48:16.010Z,97697.27
2022-11-15T05:51:06.207Z,97692.85
2022-11-15T05:53:56.926Z,97691.13
2022-11-15T05:56:48.608Z,97688.04
2022-11-15T05:59:38.686Z,97687.55
2022-11-15T06:02:27.282Z,97690.70
2022-11-15T06:05:15.416Z,97687.27
2022-11-15T06:08:03.615Z,97691.04
2022-11-15T06:10:54.045Z,97698.71
2022-11-15T06:13:42.147Z,97692.92
2022-11-15T06:16:30.293Z,97690.52
2022-11-15T06:19:18.334Z,97687.97
2022-11-15T06:22:09.967Z,97685.77
2022-11-15T06:25:04.069Z,97684.73
2022-11-15T06:27:56.529Z,97685.08
2022-11-15T06:30:47.932Z,97683.89
2022-11-15T06:33:40.052Z,97687.34
2022-11-15T06:36:28.214Z,97685.14
2022-11-15T06:39:16.477Z,97683.74
2022-11-15T06:42:04.776Z,97684.98
2022-11-15T06:44:53.303Z,97686.86
2022-11-15T06:47:47.701Z,97691.98
2022-11-15T06:50:35.791Z,97691.14
2022-11-15T06:53:24.234Z,97691.55
2022-11-15T06:56:12.469Z,97687.13
2022-11-15T06:59:00.376Z,97687.82
2022-11-15T07:01:48.876Z,97689.40
2022-11-15T07:04:37.347Z,97686.86
2022-11-15T07:07:26.056Z,97681.05
2022-11-15T07:10:14.176Z,97680.02
2022-11-15T07:13:02.724Z,97680.41
2022-11-15T07:15:50.549Z,97676.31
2022-11-15T07:18:39.984Z,97673.06
2022-11-15T07:21:53.973Z,97668.96
2022-11-15T07:24:48.937Z,97665.56
2022-11-15T07:27:36.890Z,97664.04
2022-11-15T07:30:25.726Z,97666.25
2022-11-15T07:33:13.747Z,97665.56
2022-11-15T07:36:02.733Z,97663.18
2022-11-15T07:38:50.666Z,97655.84
2022-11-15T07:41:39.218Z,97651.90
2022-11-15T07:44:27.716Z,97652.06
2022-11-15T07:47:16.661Z,97649.64
2022-11-15T07:50:05.778Z,97651.84
2022-11-15T07:52:57.514Z,97651.83
2022-11-15T07:55:46.404Z,97646.99
2022-11-15T07:58:34.409Z,97645.90
2022-11-15T08:01:22.718Z,97642.90
2022-11-15T08:04:12.493Z,97642.69
2022-11-15T08:07:00.752Z,97636.75
2022-11-15T08:09:49.145Z,97635.15
2022-11-15T08:12:37.646Z,97634.87
2022-11-15T08:15:26.026Z,97633.52
2022-11-15T08:18:15.613Z,97634.70
2022-11-15T08:21:04.426Z,97636.70
2022-11-15T08:23:52.866Z,97635.77
2022-11-15T08:26:40.827Z,97638.30
2022-11-15T08:29:29.051Z,97637.66
2022-11-15T08:32:18.339Z,97643.74
2022-11-15T08:35:09.247Z,97639.77
2022-11-15T08:37:57.521Z,97638.88
2022-11-15T08:40:46.358Z,97637.00
2022-11-15T08:43:35.502Z,97630.40
2022-11-15T08:46:24.085Z,97631.75
2022-11-15T08:49:12.561Z,97629.52
2022-11-15T08:52:00.935Z,97622.84
2022-11-15T08:54:49.138Z,97620.63
2022-11-15T08:57:37.227Z,97618.60
2022-11-15T09:00:28.086Z,97619.83
2022-11-15T09:03:16.606Z,97618.21
2022-11-15T09:06:05.408Z,97613.39
2022-11-15T09:08:54.229Z,97611.34
2022-11-15T09:11:42.373Z,97610.27
2022-11-15T09:14:31.107Z,97606.32
2022-11-15T09:17:24.435Z,97605.31
2022-11-15T09:20:13.911Z,97604.08
2022-11-15T09:23:03.260Z,97597.98
2022-11-15T09:25:51.826Z,97592.73
2022-11-15T09:28:42.316Z,97591.77
2022-11-15T09:31:30.899Z,97591.98
2022-11-15T09:34:18.777Z,97587.64
2022-11-15T09:37:07.376Z,97588.44
2022-11-15T09:39:55.505Z,97584.17
2022-11-15T09:43:04.370Z,97575.09
2022-11-15T09:46:02.159Z,97569.05
2022-11-15T09:48:55.785Z,97553.96
2022-11-15T09:51:48.748Z,97554.02
2022-11-15T09:54:51.659Z,97549.52
2022-11-15T09:57:16.519Z,97545.34
2022-11-15T10:00:12.405Z,97539.05
2022-11-15T10:03:04.324Z,97536.81
2022-11-15T10:05:37.651Z,97534.11
2022-11-15T10:08:15.043Z,97532.67
2022-11-15T10:11:00.579Z,97530.08
2022-11-15T10:13:48.230Z,97530.02
2022-11-15T10:16:33.058Z,97529.48
2022-11-15T10:19:12.529Z,97525.82
2022-11-15T10:21:50.174Z,97518.83
2022-11-15T10:24:28.718Z,97515.02
2022-11-15T10:26:58.677Z,97516.04
2022-11-15T10:29:28.158Z,97508.62
2022-11-15T10:31:57.595Z,97503.49
2022-11-15T10:34:29.833Z,97501.86
2022-11-15T10:37:02.254Z,97500.05
2022-11-15T10:39:32.097Z,97498.39
2022-11-15T10:42:18.081Z,97494.76
2022-11-15T10:44:47.960Z,97493.27
2022-11-15T10:47:29.795Z,97490.48
2022-11-15T10:50:08.208Z,97490.90
2022-11-15T10:52:46.023Z,97495.11
2022-11-15T10:55:27.247Z,97485.70
2022-11-15T10:58:06.637Z,97489.10
2022-11-15T11:00:40.299Z,97485.63
2022-11-15T11:03:31.009Z,97482.95
2022-11-15T11:06:13.786Z,97479.44
2022-11-15T11:08:57.137Z,97471.77
2022-11-15T11:11:47.570Z,97469.35
2022-11-15T11:14:23.624Z,97465.89
2022-11-15T11:16:58.065Z,97468.30
2022-11-15T11:19:54.244Z,97462.83
2022-11-15T11:22:34.106Z,97456.90
2022-11-15T11:25:20.605Z,97451.54
2022-11-15T11:28:07.310Z,97447.90
2022-11-15T11:30:47.974Z,97447.34
2022-11-15T11:33:22.945Z,97443.62
2022-11-15T11:36:05.115Z,97438.02
2022-11-15T11:38:55.891Z,97436.32
2022-11-15T11:41:48.033Z,97431.09
2022-11-15T11:44:35.406Z,97428.08
2022-11-15T11:47:10.904Z,97425.36
2022-11-15T11:49:48.084Z,97419.71
2022-11-15T11:52:24.447Z,97419.23
2022-11-15T11:55:01.902Z,97420.48
2022-11-15T11:57:40.970Z,97413.36
2022-11-15T12:00:20.438Z,97412.21
2022-11-15T12:02:58.943Z,97409.89
2022-11-15T12:05:34.617Z,97412.96
2022-11-15T12:08:21.654Z,97405.58
2022-11-15T12:10:55.145Z,97402.64
2022-11-15T12:13:26.706Z,97402.56
2022-11-15T12:16:07.451Z,97398.15
2022-11-15T12:18:39.076Z,97400.69
2022-11-15T12:21:16.270Z,97399.59
2022-11-15T12:23:50.302Z,97394.96
2022-11-15T12:26:25.090Z,97393.83
2022-11-15T12:29:07.625Z,97390.04
2022-11-15T12:31:42.206Z,97385.13
2022-11-15T12:34:35.137Z,97379.52
2022-11-15T12:37:51.142Z,97376.81
2022-11-15T12:40:32.444Z,97379.40
2022-11-15T12:43:38.225Z,97379.17
2022-11-15T12:46:14.186Z,97375.54
2022-11-15T12:49:01.096Z,97374.55
2022-11-15T12:52:03.738Z,97368.56
2022-11-15T12:55:20.147Z,97366.73
2022-11-15T12:57:49.797Z,97363.00
2022-11-15T13:00:49.010Z,97362.91
2022-11-15T13:03:30.168Z,97358.11
2022-11-15T13:06:09.069Z,97355.27
2022-11-15T13:08:41.248Z,97355.06
2022-11-15T13:11:57.895Z,97348.43
2022-11-15T13:14:48.651Z,97350.55
2022-11-15T13:17:40.796Z,97351.20
2022-11-15T13:20:26.787Z,97347.98
2022-11-15T13:23:04.498Z,97347.65
2022-11-15T13:26:04.724Z,97342.48
2022-11-15T13:28:38.021Z,97344.64
2022-11-15T13:31:29.526Z,97345.56
2022-11-15T13:34:03.532Z,97344.59
2022-11-15T13:36:35.282Z,97345.28
2022-11-15T13:39:07.049Z,97340.42
2022-11-15T13:41:48.939Z,97336.98
2022-11-15T13:44:24.515Z,97335.27
2022-11-15T13:47:05.504Z,97336.40
2022-11-15T13:49:36.191Z,97335.40
2022-11-15T13:52:08.109Z,97333.41
2022-11-15T13:54:47.372Z,97335.99
2022-11-15T13:57:22.565Z,97336.17
2022-11-15T13:59:56.336Z,97335.00
2022-11-15T14:02:28.665Z,97332.43
2022-11-15T14:05:02.708Z,97331.46
2022-11-15T14:07:33.250Z,97330.92
2022-11-15T14:10:28.523Z,97329.64
2022-11-15T14:12:58.680Z,97328.13
2022-11-15T14:15:32.448Z,97321.40
2022-11-15T14:18:02.817Z,97316.89
2022-11-15T14:20:35.835Z,97311.52
2022-11-15T14:23:07.234Z,97308.75
2022-11-15T14:25:37.917Z,97305.18
2022-11-15T14:28:13.014Z,97300.56
2022-11-15T14:30:43.758Z,97298.94
2022-11-15T14:33:23.356Z,97298.16
2022-11-15T14:35:57.812Z,97294.95
2022-11-15T14:38:29.110Z,97292.96
2022-11-15T14:41:07.447Z,97284.54
2022-11-15T14:43:38.355Z,97276.56
2022-11-15T14:46:12.456Z,97273.91
2022-11-15T14:48:44.876Z,97269.55
2022-11-15T14:51:19.860Z,97266.74
2022-11-15T14:53:51.717Z,97263.70
2022-11-15T14:56:21.387Z,97266.27
2022-11-15T14:58:51.187Z,97267.36
2022-11-15T15:01:25.017Z,97268.21
2022-11-15T15:03:57.667Z,97265.57
2022-11-15T15:06:27.951Z,97261.98
2022-11-15T15:08:57.724Z,97255.48
2022-11-15T15:11:31.097Z,97256.25
2022-11-15T15:14:01.815Z,97254.64
2022-11-15T15:16:31.910Z,97256.19
2022-11-15T15:19:03.700Z,97257.23
2022-11-15T15:21:37.584Z,97256.91
2022-11-15T15:24:10.105Z,97254.02
2022-11-15T15:26:42.876Z,97253.97
2022-11-15T15:29:15.448Z,97249.13
2022-11-15T15:31:46.025Z,97244.73
2022-11-15T15:34:17.015Z,97239.70
2022-11-15T15:36:46.865Z,97238.59
2022-11-15T15:39:16.648Z,97237.77
2022-11-15T15:41:47.052Z,97238.41
2022-11-15T15:44:16.897Z,97237.61
2022-11-15T15:46:49.278Z,97239.29
2022-11-15T15:49:19.067Z,97240.67
2022-11-15T15:51:57.006Z,97241.93
2022-11-15T15:54:30.810Z,97246.04
2022-11-15T15:56:59.766Z,97245.20
2022-11-15T15:59:29.185Z,97244.21
2022-11-15T16:01:58.655Z,97244.28
2022-11-15T16:04:29.235Z,97236.81
2022-11-15T16:07:02.259Z,97238.83
2022-11-15T16:09:49.276Z,97239.80
2022-11-15T16:12:18.790Z,97239.26
2022-11-15T16:14:48.174Z,97230.45
2022-11-15T16:17:21.328Z,97229.07
2022-11-15T16:19:50.914Z,97228.36
2022-11-15T16:22:21.162Z,97234.33
2022-11-15T16:24:51.527Z,97237.45
2022-11-15T16:27:22.274Z,97237.55
2022-11-15T16:29:53.146Z,97239.33
2022-11-15T16:32:25.485Z,97235.63
2022-11-15T16:35:00.320Z,97236.21
2022-11-15T16:37:30.367Z,97230.17
2022-11-15T16:40:04.574Z,97232.22
2022-11-15T16:42:35.103Z,97231.88
2022-11-15T16:45:05.667Z,97228.14
2022-11-15T16:47:37.605Z,97227.04
2022-11-15T16:50:12.106Z,97219.27
2022-11-15T16:52:43.684Z,97217.10
2022-11-15T16:55:13.326Z,97216.73
2022-11-15T16:57:42.838Z,97215.34
2022-11-15T17:00:16.418Z,97214.61
2022-11-15T17:02:45.080Z,97217.27
2022-11-15T17:05:20.103Z,97218.15
2022-11-15T17:07:52.059Z,97216.41
2022-11-15T17:10:22.695Z,97213.58
2022-11-15T17:12:55.717Z,97211.20
2022-11-15T17:15:25.622Z,97215.92
2022-11-15T17:17:56.214Z,97213.95
2022-11-15T17:20:26.670Z,97208.16
2022-11-15T17:22:58.824Z,97209.70
2022-11-15T17:25:28.599Z,97206.11
2022-11-15T17:27:58.464Z,97201.00
2022-11-15T17:30:28.377Z,97198.67
2022-11-15T17:33:00.648Z,97192.88
2022-11-15T17:35:30.576Z,97192.48
2022-11-15T17:37:59.931Z,97194.15
2022-11-15T17:40:29.487Z,97194.25
2022-11-15T17:43:02.346Z,97188.45
2022-11-15T17:45:32.306Z,97192.57
2022-11-15T17:48:02.997Z,97190.64
2022-11-15T17:50:33.068Z,97191.64
2022-11-15T17:53:04.786Z,97185.42
2022-11-15T17:55:34.846Z,97180.88
2022-11-15T17:58:04.147Z,97182.53
2022-11-15T18:00:34.558Z,97177.37
2022-11-15T18:03:04.648Z,97176.48
2022-11-15T18:05:34.318Z,97170.34
2022-11-15T18:08:03.757Z,97169.11
2022-11-15T18:10:36.607Z,97167.45
2022-11-15T18:13:06.575Z,97162.73
2022-11-15T18:15:36.368Z,97161.27
2022-11-15T18:18:06.096Z,97158.42
2022-11-15T18:20:35.760Z,97152.51
2022-11-15T18:23:06.797Z,97150.60
2022-11-15T18:25:36.276Z,97147.20
2022-11-15T18:28:06.297Z,97147.27
2022-11-15T18:30:38.386Z,97146.02
2022-11-15T18:33:07.975Z,97144.30
2022-11-15T18:35:38.477Z,97143.38
2022-11-15T18:38:08.037Z,97145.55
2022-11-15T18:40:37.628Z,97141.92
2022-11-15T18:43:07.213Z,97142.08
2022-11-15T18:45:39.391Z,97136.08
2022-11-15T18:48:12.980Z,97135.54
2022-11-15T18:50:47.905Z,97132.45
2022-11-15T18:53:27.827Z,97129.13
2022-11-15T18:56:06.330Z,97125.64
2022-11-15T18:58:38.842Z,97127.81
2022-11-15T19:01:11.507Z,97127.63
2022-11-15T19:03:51.098Z,97122.14
2022-11-15T19:06:23.494Z,97121.70
2022-11-15T19:08:59.408Z,97119.20
2022-11-15T19:11:32.884Z,97123.30
2022-11-15T19:14:06.411Z,97126.66
2022-11-15T19:16:43.048Z,97128.32
2022-11-15T19:19:22.106Z,97124.11
2022-11-15T19:21:53.068Z,97123.41
2022-11-15T19:24:25.276Z,97113.56
2022-11-15T19:26:57.715Z,97113.81
2022-11-15T19:29:27.071Z,97112.03
2022-11-15T19:32:00.348Z,97114.56
2022-11-15T19:34:31.513Z,97112.83
2022-11-15T19:37:02.898Z,97112.92
2022-11-15T19:39:35.830Z,97105.49
2022-11-15T19:42:10.555Z,97104.06
2022-11-15T19:44:41.107Z,97103.24
2022-11-15T19:47:10.921Z,97102.54
2022-11-15T19:49:43.645Z,97100.61
2022-11-15T19:52:16.257Z,97096.30
2022-11-15T19:54:48.947Z,97091.16
2022-11-15T19:57:18.924Z,97090.05
2022-11-15T19:59:49.129Z,97086.41
2022-11-15T20:02:18.890Z,97086.55
2022-11-15T20:04:48.778Z,97084.48
2022-11-15T20:07:18.336Z,97082.69
2022-11-15T20:09:48.826Z,97080.27
2022-11-15T20:12:18.447Z,97076.50
2022-11-15T20:14:48.735Z,97078.92
2022-11-15T20:17:19.731Z,97077.38
2022-11-15T20:19:53.784Z,97075.83
2022-11-15T20:22:26.046Z,97071.86
2022-11-15T20:24:56.122Z,97066.20
2022-11-15T20:27:26.444Z,97067.40
2022-11-15T20:29:58.804Z,97066.88
2022-11-15T20:32:36.367Z,97068.59
2022-11-15T20:35:10.255Z,97065.89
2022-11-15T20:37:48.614Z,97066.64
2022-11-15T20:40:19.454Z,97066.84
2022-11-15T20:43:01.168Z,97066.63
2022-11-15T20:45:31.387Z,97069.05
2022-11-15T20:48:00.776Z,97063.86
2022-11-15T20:50:46.171Z,97061.50
2022-11-15T20:53:18.665Z,97061.38
2022-11-15T20:55:53.050Z,97059.55
2022-11-15T20:58:22.978Z,97056.08
2022-11-15T21:00:56.686Z,97051.23
2022-11-15T21:03:26.256Z,97047.14
2022-11-15T21:06:01.392Z,97040.08
2022-11-15T21:08:53.935Z,97043.00
2022-11-15T21:11:41.656Z,97039.49
2022-11-15T21:14:11.096Z,97032.05
2022-11-15T21:16:43.651Z,97028.41
2022-11-15T21:19:14.088Z,97021.81
2022-11-15T21:21:43.602Z,97020.08
2022-11-15T21:24:13.318Z,97014.73
2022-11-15T21:26:42.881Z,97010.77
2022-11-15T21:29:16.993Z,97014.41
2022-11-15T21:31:52.507Z,97013.73
2022-11-15T21:34:22.298Z,97015.10
2022-11-15T21:36:51.705Z,97014.44
2022-11-15T21:39:21.354Z,97013.69
2022-11-15T21:41:50.813Z,97013.95
2022-11-15T21:44:20.264Z,97011.61
2022-11-15T21:46:52.206Z,97008.04
2022-11-15T21:49:22.427Z,97009.30
2022-11-15T21:51:51.785Z,97005.76
2022-11-15T21:54:21.159Z,97005.41
2022-11-15T21:56:50.477Z,97001.09
2022-11-15T21:59:19.883Z,97000.98
2022-11-15T22:02:07.405Z,96996.86
2022-11-15T22:04:39.720Z,96993.55
2022-11-15T22:07:09.311Z,96992.38
2022-11-15T22:09:39.187Z,96988.31
2022-11-15T22:12:11.696Z,96984.07
2022-11-15T22:14:41.050Z,96981.12
2022-11-15T22:17:13.943Z,96982.45
2022-11-15T22:19:52.205Z,96980.44
2022-11-15T22:22:22.895Z,96984.08
2022-11-15T22:24:53.006Z,96983.56
2022-11-15T22:27:23.406Z,96983.83
2022-11-15T22:29:53.725Z,96984.30
2022-11-15T22:32:23.705Z,96981.11
2022-11-15T22:34:55.907Z,96974.33
2022-11-15T22:37:25.445Z,96973.95
2022-11-15T22:39:56.107Z,96972.92
2022-11-15T22:42:26.296Z,96969.30
2022-11-15T22:44:56.607Z,96971.05
2022-11-15T22:47:26.655Z,96963.58
2022-11-15T22:49:59.494Z,96962.44
2022-11-15T22:52:29.238Z,96959.02
2022-11-15T22:55:03.337Z,96958.54
2022-11-15T22:57:33.063Z,96951.54
2022-11-15T23:00:03.435Z,96953.20
2022-11-15T23:02:33.956Z,96949.48
2022-11-15T23:05:04.396Z,96943.98
2022-11-15T23:07:34.912Z,96938.79
2022-11-15T23:10:19.327Z,96941.02
2022-11-15T23:13:07.416Z,96938.27
2022-11-15T23:15:51.427Z,96931.05
2022-11-15T23:18:21.347Z,96931.58
2022-11-15T23:20:51.127Z,96926.28
2022-11-15T23:23:20.766Z,96922.82
2022-11-15T23:25:59.269Z,96922.66
2022-11-15T23:28:29.065Z,96920.47
2022-11-15T23:31:24.044Z,96915.48
2022-11-15T23:33:59.716Z,96905.92
2022-11-15T23:36:29.917Z,96901.02
2022-11-15T23:38:59.566Z,96897.54
2022-11-15T23:41:29.344Z,96894.34
2022-11-15T23:43:59.025Z,96896.17
2022-11-15T23:46:28.884Z,96896.86
2022-11-15T23:48:58.647Z,96892.56
2022-11-15T23:51:28.557Z,96891.36
2022-11-15T23:53:58.695Z,96884.95
2022-11-15T23:56:28.420Z,96884.54
2022-11-15T23:58:58.330Z,96882.82
